Time;durP1;ratioP1;P1;durP2;ratioP2;P2;SDS_P1;SDS_P2;PMS_P1;PMS_P2;Temp;Humidity;BMP_temperature;BMP_pressure;BME280_temperature;BME280_humidity;BME280_pressure;Samples;Min_cycle;Max_cycle;Signal;HPM_P1;HPM_P2
2022/04/04 00:00:09;;;;;;;1.05;0.77;;;19.70;41.50;;;;;;5039820;27;43493;-61
2022/04/04 00:02:37;;;;;;;1.80;1.10;;;19.70;41.50;;;;;;5077749;27;43587;-61
2022/04/04 00:05:05;;;;;;;1.05;0.93;;;19.70;41.50;;;;;;5078636;27;44699;-62
2022/04/04 00:07:32;;;;;;;1.25;0.82;;;19.60;42.10;;;;;;5051110;27;43451;-62
2022/04/04 00:10:01;;;;;;;0.70;0.70;;;19.60;41.50;;;;;;5076371;27;43510;-61
2022/04/04 00:12:28;;;;;;;0.60;0.60;;;19.60;41.50;;;;;;5078891;27;43440;-61
2022/04/04 00:14:56;;;;;;;0.77;0.77;;;19.60;41.50;;;;;;5063455;27;44187;-61
2022/04/04 00:17:23;;;;;;;1.42;0.80;;;19.60;41.40;;;;;;5046677;27;43630;-61
2022/04/04 00:19:51;;;;;;;1.40;0.75;;;19.60;41.50;;;;;;5076137;27;43382;-61
2022/04/04 00:22:18;;;;;;;0.77;0.77;;;19.60;41.40;;;;;;5081781;27;43474;-61
2022/04/04 00:24:46;;;;;;;1.25;0.65;;;19.50;41.30;;;;;;5074121;27;44799;-61
2022/04/04 00:27:13;;;;;;;0.68;0.63;;;19.50;41.20;;;;;;5062304;27;43474;-61
2022/04/04 00:29:41;;;;;;;0.93;0.90;;;19.60;41.40;;;;;;5075907;27;43429;-61
2022/04/04 00:32:09;;;;;;;1.02;0.95;;;19.50;41.40;;;;;;5078555;27;43446;-61
2022/04/04 00:34:37;;;;;;;0.80;0.80;;;19.50;41.40;;;;;;5062374;27;44661;-61
2022/04/04 00:37:05;;;;;;;1.35;0.80;;;19.50;41.40;;;;;;5067484;27;43510;-61
2022/04/04 00:39:32;;;;;;;0.63;0.63;;;19.50;41.30;;;;;;5091178;27;43406;-61
2022/04/04 00:42:00;;;;;;;0.73;0.73;;;19.40;41.30;;;;;;5078368;27;43564;-61
2022/04/04 00:44:28;;;;;;;0.70;0.70;;;19.40;41.30;;;;;;5056343;27;44634;-61
2022/04/04 00:46:57;;;;;;;0.93;0.73;;;19.40;41.30;;;;;;5062105;27;43443;-61
2022/04/04 00:49:25;;;;;;;0.70;0.70;;;19.40;41.30;;;;;;5055996;27;43512;-61
2022/04/04 00:51:53;;;;;;;0.95;0.85;;;19.40;41.40;;;;;;5102238;27;43566;-61
2022/04/04 00:54:21;;;;;;;0.85;0.75;;;19.40;41.30;;;;;;5055183;27;43800;-60
2022/04/04 00:56:49;;;;;;;1.00;0.85;;;19.40;41.30;;;;;;5097731;27;43680;-61
2022/04/04 00:59:20;;;;;;;0.50;0.50;;;19.40;41.20;;;;;;5086386;27;43424;-61
2022/04/04 01:01:48;;;;;;;0.75;0.75;;;19.40;41.30;;;;;;5098024;27;43600;-61
2022/04/04 01:04:16;;;;;;;0.88;0.70;;;19.30;41.30;;;;;;5055379;27;44655;-61
2022/04/04 01:06:44;;;;;;;0.70;0.70;;;19.30;41.30;;;;;;5097140;27;44087;-61
2022/04/04 01:09:14;;;;;;;1.08;0.70;;;19.30;41.30;;;;;;5083891;27;43481;-61
2022/04/04 01:12:02;;;;;;;;;;;19.40;41.50;;;;;;5054392;27;43561;-61
2022/04/04 01:14:30;;;;;;;1.10;0.90;;;19.30;41.30;;;;;;5064546;27;43781;-61
2022/04/04 01:16:57;;;;;;;0.77;0.77;;;19.30;41.50;;;;;;5087352;27;44052;-61
2022/04/04 01:19:25;;;;;;;1.35;0.68;;;19.30;41.50;;;;;;5115487;27;43469;-61
2022/04/04 01:21:53;;;;;;;0.70;0.70;;;19.20;41.40;;;;;;5039675;27;43531;-61
2022/04/04 01:24:22;;;;;;;0.75;0.60;;;19.20;41.30;;;;;;5066375;27;43796;-61
2022/04/04 01:26:51;;;;;;;0.98;0.88;;;19.20;41.40;;;;;;5086312;27;45073;-61
2022/04/04 01:29:20;;;;;;;0.80;0.70;;;19.20;41.50;;;;;;5067711;27;43548;-61
2022/04/04 01:31:49;;;;;;;0.63;0.50;;;19.30;41.50;;;;;;5049114;27;43592;-61
2022/04/04 01:34:21;;;;;;;0.73;0.70;;;19.20;42.10;;;;;;5096941;27;45035;-61
2022/04/04 01:36:49;;;;;;;1.00;0.98;;;19.20;41.50;;;;;;5079301;27;43588;-61
2022/04/04 01:39:20;;;;;;;0.60;0.60;;;19.20;41.50;;;;;;5062241;27;43553;-61
2022/04/04 01:41:48;;;;;;;0.82;0.82;;;19.20;41.50;;;;;;5061863;27;43383;-61
2022/04/04 01:44:15;;;;;;;1.13;0.80;;;19.20;41.50;;;;;;5096943;27;44687;-61
2022/04/04 01:46:46;;;;;;;0.73;0.63;;;19.20;41.50;;;;;;5062973;27;43399;-61
2022/04/04 01:49:13;;;;;;;0.70;0.70;;;19.20;41.50;;;;;;5057566;27;43460;-61
2022/04/04 01:51:42;;;;;;;0.80;0.80;;;19.10;41.50;;;;;;5125814;27;43479;-61
2022/04/04 01:54:09;;;;;;;1.15;0.80;;;19.10;41.50;;;;;;5094932;27;43704;-61
2022/04/04 01:56:37;;;;;;;1.48;0.60;;;19.10;41.40;;;;;;5102362;27;43517;-61
2022/04/04 01:59:04;;;;;;;0.73;0.73;;;19.10;41.50;;;;;;5086293;27;43450;-61
2022/04/04 02:01:34;;;;;;;0.65;0.63;;;19.10;41.60;;;;;;5061532;27;43482;-60
2022/04/04 02:04:02;;;;;;;0.75;0.70;;;19.10;41.50;;;;;;5069721;27;44924;-61
2022/04/04 02:06:29;;;;;;;0.82;0.82;;;19.10;41.60;;;;;;5067438;27;44084;-61
2022/04/04 02:08:57;;;;;;;0.75;0.75;;;19.00;41.50;;;;;;5054053;27;43609;-61
2022/04/04 02:11:24;;;;;;;0.88;0.60;;;19.10;41.60;;;;;;5100498;27;43471;-61
2022/04/04 02:13:52;;;;;;;1.35;0.95;;;19.00;41.60;;;;;;5096132;27;43861;-61
2022/04/04 02:16:20;;;;;;;0.95;0.68;;;19.00;41.50;;;;;;5064370;27;43469;-61
2022/04/04 02:18:47;;;;;;;1.30;0.77;;;19.10;41.60;;;;;;5050226;27;43505;-61
2022/04/04 02:21:14;;;;;;;1.23;0.90;;;19.00;41.60;;;;;;5099004;27;43506;-61
2022/04/04 02:23:42;;;;;;;0.93;0.90;;;19.00;41.50;;;;;;5097595;27;44841;-61
2022/04/04 02:26:10;;;;;;;1.10;0.90;;;19.00;41.50;;;;;;5060188;27;43377;-61
2022/04/04 02:28:37;;;;;;;1.20;0.93;;;19.00;41.60;;;;;;5044532;27;43461;-62
2022/04/04 02:31:05;;;;;;;1.25;1.15;;;19.00;41.50;;;;;;5060107;27;43585;-61
2022/04/04 02:33:32;;;;;;;1.30;1.20;;;19.00;41.50;;;;;;5071726;27;43816;-61
2022/04/04 02:36:00;;;;;;;1.00;1.00;;;19.00;41.60;;;;;;5051535;27;43869;-61
2022/04/04 02:38:28;;;;;;;0.93;0.93;;;18.90;41.60;;;;;;5078487;27;43552;-60
2022/04/04 02:40:57;;;;;;;1.15;1.05;;;19.00;41.60;;;;;;5059939;27;43538;-61
2022/04/04 02:43:25;;;;;;;1.65;1.10;;;18.90;41.50;;;;;;5073119;27;44698;-61
2022/04/04 02:45:52;;;;;;;1.48;1.27;;;18.90;41.50;;;;;;5046403;27;44065;-61
2022/04/04 02:48:20;;;;;;;1.40;1.20;;;18.90;41.50;;;;;;5080434;27;43421;-61
2022/04/04 02:50:48;;;;;;;1.25;1.10;;;18.90;41.50;;;;;;5099940;27;43623;-62
2022/04/04 02:53:16;;;;;;;1.10;1.00;;;18.90;41.50;;;;;;5063055;27;44998;-62
2022/04/04 02:58:30;;;;;;;1.60;1.08;;;18.90;41.50;;;;;;5094930;27;43493;-62
2022/04/04 03:00:58;;;;;;;1.30;1.17;;;18.90;41.50;;;;;;5091024;27;43445;-61
2022/04/04 03:03:25;;;;;;;1.60;1.27;;;18.90;41.60;;;;;;5037725;27;44064;-61
2022/04/04 03:05:53;;;;;;;1.23;1.13;;;18.80;41.60;;;;;;5079565;27;43731;-61
2022/04/04 03:08:20;;;;;;;1.48;1.38;;;18.90;41.60;;;;;;5095336;27;43437;-61
2022/04/04 03:10:48;;;;;;;2.22;1.40;;;18.90;41.50;;;;;;5087063;27;43482;-61
2022/04/04 03:13:15;;;;;;;1.55;1.45;;;18.80;41.50;;;;;;5051163;27;43801;-61
2022/04/04 03:15:43;;;;;;;1.50;1.40;;;18.80;41.60;;;;;;5079218;27;43511;-61
2022/04/04 03:18:11;;;;;;;1.77;1.27;;;18.80;41.60;;;;;;5095395;27;43445;-61
2022/04/04 03:20:39;;;;;;;1.40;1.30;;;18.80;41.60;;;;;;5066452;27;43530;-61
2022/04/04 03:23:06;;;;;;;1.30;1.20;;;18.80;41.70;;;;;;5047950;27;43793;-61
2022/04/04 03:25:34;;;;;;;1.27;1.23;;;18.80;41.70;;;;;;5078953;27;44117;-60
2022/04/04 03:28:02;;;;;;;1.88;1.50;;;18.80;41.70;;;;;;5095395;27;43404;-62
2022/04/04 03:30:31;;;;;;;1.48;1.30;;;18.70;41.70;;;;;;5068453;27;43449;-61
2022/04/04 03:32:59;;;;;;;1.63;1.40;;;18.70;41.70;;;;;;5039653;27;45005;-61
2022/04/04 03:35:28;;;;;;;1.77;1.13;;;18.70;41.70;;;;;;5086085;27;43938;-61
2022/04/04 03:37:59;;;;;;;2.45;1.45;;;18.70;41.70;;;;;;5080273;27;43448;-61
2022/04/04 03:40:28;;;;;;;1.15;1.10;;;18.70;41.70;;;;;;5047678;27;43503;-61
2022/04/04 03:42:57;;;;;;;1.38;1.27;;;18.70;41.80;;;;;;5078592;27;44986;-61
2022/04/04 03:45:25;;;;;;;1.50;1.40;;;18.70;41.80;;;;;;5081773;27;44062;-61
2022/04/04 03:47:53;;;;;;;2.15;1.50;;;18.70;41.80;;;;;;5066544;27;43460;-62
2022/04/04 03:50:22;;;;;;;1.58;1.48;;;18.70;41.80;;;;;;5043795;27;43575;-62
2022/04/04 03:52:52;;;;;;;1.60;1.50;;;18.70;41.90;;;;;;5078394;27;43791;-62
2022/04/04 03:55:21;;;;;;;1.77;1.63;;;18.70;41.80;;;;;;5083790;27;43778;-61
2022/04/04 03:57:49;;;;;;;1.60;1.50;;;18.60;41.80;;;;;;5078585;27;43524;-62
2022/04/04 04:00:16;;;;;;;1.50;1.40;;;18.70;41.90;;;;;;5039728;27;43450;-61
2022/04/04 04:02:44;;;;;;;1.75;1.50;;;18.60;41.80;;;;;;5079009;27;44024;-62
2022/04/04 04:05:12;;;;;;;1.95;1.80;;;18.60;41.80;;;;;;5104456;27;44770;-61
2022/04/04 04:07:41;;;;;;;1.85;1.65;;;18.60;41.90;;;;;;5071778;27;43542;-62
2022/04/04 04:10:12;;;;;;;3.00;1.83;;;18.60;41.90;;;;;;5076437;27;43442;-61
2022/04/04 04:12:42;;;;;;;2.17;1.90;;;18.60;41.90;;;;;;5076240;27;43813;-61
2022/04/04 04:15:18;;;;;;;2.03;1.70;;;18.50;41.90;;;;;;5053181;27;43505;-62
2022/04/04 04:17:46;;;;;;;1.98;1.58;;;18.60;42.00;;;;;;5055347;27;43493;-61
2022/04/04 04:20:20;;;;;;;3.13;1.83;;;18.50;41.90;;;;;;5077191;27;43472;-61
2022/04/04 04:22:50;;;;;;;1.92;1.83;;;18.50;42.00;;;;;;5083127;27;44676;-62
2022/04/04 04:25:17;;;;;;;2.47;1.70;;;18.50;42.10;;;;;;5089871;27;43424;-62
2022/04/04 04:27:46;;;;;;;1.90;1.70;;;18.50;42.00;;;;;;5043611;27;43492;-62
2022/04/04 04:30:15;;;;;;;2.20;1.63;;;18.50;42.10;;;;;;5077531;27;43607;-62
2022/04/04 04:32:48;;;;;;;2.78;1.83;;;18.50;42.00;;;;;;5103097;27;44154;-61
2022/04/04 04:35:17;;;;;;;2.15;1.90;;;18.50;42.10;;;;;;5052450;27;44167;-61
2022/04/04 04:37:45;;;;;;;1.90;1.80;;;18.50;42.00;;;;;;5075352;27;43534;-62
2022/04/04 04:40:14;;;;;;;1.70;1.60;;;18.50;42.20;;;;;;5077692;27;44078;-62
2022/04/04 04:42:44;;;;;;;2.65;1.80;;;18.40;42.10;;;;;;5090629;27;43888;-64
2022/04/04 04:45:12;;;;;;;2.15;1.50;;;18.40;42.10;;;;;;5055793;27;43932;-61
2022/04/04 04:47:40;;;;;;;2.75;1.80;;;18.50;42.20;;;;;;5078093;27;43415;-62
2022/04/04 04:50:13;;;;;;;3.25;1.83;;;18.50;42.10;;;;;;5078525;27;43491;-62
2022/04/04 04:52:41;;;;;;;3.28;2.47;;;18.50;42.20;;;;;;5058306;27;43866;-61
2022/04/04 04:55:09;;;;;;;2.33;1.60;;;18.40;42.20;;;;;;5039338;27;43568;-62
2022/04/04 04:57:37;;;;;;;2.70;2.10;;;18.40;42.20;;;;;;5076901;27;43438;-62
2022/04/04 05:00:08;;;;;;;2.75;2.00;;;18.40;42.10;;;;;;5078773;27;43639;-62
2022/04/04 05:02:35;;;;;;;1.93;1.73;;;18.40;42.10;;;;;;5058133;27;43799;-61
2022/04/04 05:05:04;;;;;;;3.55;2.03;;;18.40;42.20;;;;;;5081402;27;44780;-62
2022/04/04 05:07:32;;;;;;;2.30;1.70;;;18.30;42.20;;;;;;5071732;27;43403;-62
2022/04/04 05:10:00;;;;;;;2.63;1.70;;;18.30;42.20;;;;;;5099200;27;43484;-62
2022/04/04 05:12:28;;;;;;;1.70;1.55;;;18.30;42.80;;;;;;5074563;27;44026;-62
2022/04/04 05:14:55;;;;;;;2.20;1.80;;;18.30;42.20;;;;;;5073447;27;43804;-62
2022/04/04 05:17:23;;;;;;;1.58;1.48;;;18.40;42.20;;;;;;5078112;27;43387;-63
2022/04/04 05:19:54;;;;;;;;;;;18.30;42.20;;;;;;5084422;27;43520;-62
2022/04/04 05:22:21;;;;;;;3.50;2.00;;;18.30;42.20;;;;;;5068674;27;43804;-62
2022/04/04 05:24:49;;;;;;;1.98;1.80;;;18.30;42.30;;;;;;5074923;27;43927;-62
2022/04/04 05:27:16;;;;;;;1.77;1.67;;;18.30;42.40;;;;;;5077741;27;43532;-62
2022/04/04 05:29:44;;;;;;;2.65;1.88;;;18.30;42.30;;;;;;5080712;27;43439;-62
2022/04/04 05:32:11;;;;;;;3.08;1.80;;;18.30;42.30;;;;;;5060736;27;43802;-62
2022/04/04 05:34:38;;;;;;;3.00;1.70;;;18.30;42.30;;;;;;5086451;27;43464;-63
2022/04/04 05:37:07;;;;;;;2.88;1.77;;;18.30;42.30;;;;;;5077052;27;43475;-62
2022/04/04 05:39:34;;;;;;;2.72;1.50;;;18.30;42.40;;;;;;5069070;27;43453;-62
2022/04/04 05:42:02;;;;;;;2.47;1.70;;;18.30;42.40;;;;;;5067371;27;44838;-62
2022/04/04 05:44:32;;;;;;;2.10;1.60;;;18.30;42.40;;;;;;5066469;27;44016;-62
2022/04/04 05:47:00;;;;;;;2.10;1.60;;;18.30;42.50;;;;;;5076131;27;43533;-61
2022/04/04 05:49:27;;;;;;;3.72;1.80;;;18.20;42.50;;;;;;5062276;27;43442;-63
2022/04/04 05:51:54;;;;;;;3.80;3.47;;;18.20;42.50;;;;;;5067605;27;44663;-62
2022/04/04 05:54:30;;;;;;;3.53;3.22;;;18.20;42.60;;;;;;5077853;27;43426;-62
2022/04/04 05:56:58;;;;;;;2.92;2.72;;;18.20;42.70;;;;;;5070357;27;44046;-62
2022/04/04 05:59:25;;;;;;;2.90;2.70;;;18.20;42.80;;;;;;5066167;27;43451;-62
2022/04/04 06:01:53;;;;;;;4.07;2.97;;;18.20;42.70;;;;;;5088942;27;44057;-63
2022/04/04 06:04:21;;;;;;;2.78;2.50;;;18.30;42.60;;;;;;5105187;27;45044;-62
2022/04/04 06:06:48;;;;;;;2.75;2.35;;;18.30;42.50;;;;;;5062307;27;43472;-63
2022/04/04 06:09:15;;;;;;;2.70;2.35;;;18.50;42.50;;;;;;5090754;27;43508;-63
2022/04/04 06:11:43;;;;;;;2.95;2.50;;;18.50;42.30;;;;;;5096388;27;44952;-62
2022/04/04 06:14:10;;;;;;;2.47;2.25;;;18.60;42.30;;;;;;5053042;27;44701;-63
2022/04/04 06:16:38;;;;;;;2.47;2.10;;;18.60;42.10;;;;;;5056987;27;43494;-62
2022/04/04 06:19:06;;;;;;;2.00;1.90;;;18.70;42.20;;;;;;5090624;27;43505;-62
2022/04/04 06:21:33;;;;;;;2.03;1.83;;;18.70;42.00;;;;;;5096892;27;43782;-62
2022/04/04 06:24:01;;;;;;;2.25;2.05;;;18.70;42.00;;;;;;5035665;27;44120;-62
2022/04/04 06:26:30;;;;;;;2.30;2.10;;;18.80;42.00;;;;;;5050976;27;43541;-62
2022/04/04 06:28:58;;;;;;;2.42;2.08;;;18.80;41.90;;;;;;5072898;27;43813;-62
2022/04/04 06:31:25;;;;;;;2.25;1.88;;;18.80;41.90;;;;;;5034236;27;43811;-62
2022/04/04 06:33:53;;;;;;;2.13;1.77;;;18.80;41.80;;;;;;5100573;27;43512;-63
2022/04/04 06:36:23;;;;;;;2.60;1.85;;;18.90;41.80;;;;;;5036536;28;43438;-62
2022/04/04 06:38:51;;;;;;;2.00;1.52;;;18.90;42.10;;;;;;5071221;27;43549;-63
2022/04/04 06:41:19;;;;;;;2.50;1.90;;;18.90;42.10;;;;;;5037030;27;43747;-60
2022/04/04 06:43:47;;;;;;;1.70;1.60;;;19.00;42.10;;;;;;5036323;27;43390;-62
2022/04/04 06:46:16;;;;;;;2.33;1.50;;;19.10;42.00;;;;;;5103406;27;43445;-61
2022/04/04 06:48:45;;;;;;;3.20;1.50;;;19.10;42.00;;;;;;5036842;27;43491;-62
2022/04/04 06:51:12;;;;;;;3.83;2.10;;;19.20;41.80;;;;;;5038891;27;44705;-63
2022/04/04 06:53:40;;;;;;;1.52;1.38;;;19.30;41.60;;;;;;5043512;27;43436;-62
2022/04/04 06:56:07;;;;;;;2.22;1.40;;;19.30;41.50;;;;;;5032535;27;43548;-62
2022/04/04 06:58:35;;;;;;;2.80;1.10;;;19.40;41.60;;;;;;5035368;27;43604;-62
2022/04/04 07:01:02;;;;;;;2.08;1.50;;;19.50;41.50;;;;;;5039554;27;43794;-62
2022/04/04 07:03:30;;;;;;;1.73;1.30;;;19.50;41.30;;;;;;5035545;27;43500;-62
2022/04/04 07:05:57;;;;;;;2.13;1.40;;;19.60;41.30;;;;;;5036531;27;43507;-62
2022/04/04 07:08:25;;;;;;;1.63;1.48;;;19.60;41.20;;;;;;5041868;27;43467;-63
2022/04/04 07:10:52;;;;;;;11.30;1.60;;;19.70;41.20;;;;;;5038686;27;43783;-61
2022/04/04 07:13:20;;;;;;;3.22;1.20;;;19.70;41.60;;;;;;5038378;27;43423;-63
2022/04/04 07:15:48;;;;;;;1.20;1.10;;;19.80;41.20;;;;;;5039744;27;43540;-62
2022/04/04 07:18:17;;;;;;;2.28;1.40;;;19.80;41.00;;;;;;5039093;27;43630;-62
2022/04/04 07:20:44;;;;;;;1.73;1.27;;;19.80;41.00;;;;;;5075737;27;44716;-62
2022/04/04 07:23:12;;;;;;;1.85;1.27;;;19.80;41.00;;;;;;5041347;27;43561;-62
2022/04/04 07:25:39;;;;;;;2.35;1.60;;;19.90;41.00;;;;;;5036303;27;43538;-63
2022/04/04 07:28:08;;;;;;;2.38;1.10;;;19.90;41.00;;;;;;5040320;27;43585;-62
2022/04/04 07:30:36;;;;;;;1.80;1.13;;;20.00;41.00;;;;;;5089023;27;44644;-63
2022/04/04 07:33:04;;;;;;;1.95;1.20;;;20.00;41.00;;;;;;5032191;27;43490;-62
2022/04/04 07:35:31;;;;;;;1.65;1.30;;;20.00;41.00;;;;;;5086625;27;43476;-62
2022/04/04 07:37:59;;;;;;;1.33;1.10;;;19.90;40.90;;;;;;5039079;27;43460;-63
2022/04/04 07:40:27;;;;;;;1.48;1.38;;;19.90;40.90;;;;;;5062156;27;43813;-60
2022/04/04 07:42:55;;;;;;;2.97;1.58;;;20.00;41.00;;;;;;5043635;27;44076;-61
2022/04/04 07:45:23;;;;;;;7.60;1.75;;;20.00;41.00;;;;;;5045122;27;43491;-61
2022/04/04 07:47:50;;;;;;;5.45;1.70;;;20.00;41.20;;;;;;5055307;27;43489;-62
2022/04/04 07:50:18;;;;;;;2.95;1.27;;;20.10;41.20;;;;;;5046212;27;44987;-61
2022/04/04 07:52:46;;;;;;;3.42;1.50;;;20.20;41.00;;;;;;5051157;27;43442;-61
2022/04/04 07:55:14;;;;;;;2.58;1.33;;;20.20;41.00;;;;;;5104407;27;43442;-62
2022/04/04 07:57:42;;;;;;;2.05;1.23;;;20.30;41.00;;;;;;5052730;27;43472;-62
2022/04/04 08:00:14;;;;;;;2.67;1.13;;;20.40;41.00;;;;;;5058371;27;43969;-62
2022/04/04 08:02:42;;;;;;;3.50;1.15;;;20.40;40.90;;;;;;5052095;27;45061;-62
2022/04/04 08:05:11;;;;;;;3.38;1.20;;;20.60;41.00;;;;;;5043307;27;43452;-61
2022/04/04 08:07:40;;;;;;;3.45;1.23;;;20.60;40.70;;;;;;5055315;27;43452;-61
2022/04/04 08:10:08;;;;;;;2.88;1.33;;;20.70;40.60;;;;;;5035464;27;45022;-60
2022/04/04 08:12:36;;;;;;;4.28;1.27;;;20.80;40.60;;;;;;5036058;28;43707;-60
2022/04/04 08:15:04;;;;;;;4.05;1.23;;;20.90;40.40;;;;;;5058701;27;43432;-63
2022/04/04 08:17:32;;;;;;;3.60;1.35;;;21.00;40.50;;;;;;5040518;28;43461;-60
2022/04/04 08:19:59;;;;;;;2.67;1.08;;;21.10;40.50;;;;;;5049385;27;44739;-60
2022/04/04 08:22:28;;;;;;;2.42;1.02;;;21.20;40.30;;;;;;5052201;27;43453;-60
2022/04/04 08:24:55;;;;;;;3.58;1.20;;;21.30;39.90;;;;;;5038738;28;43411;-61
2022/04/04 08:27:23;;;;;;;2.90;1.10;;;21.40;40.00;;;;;;5038660;28;43479;-61
2022/04/04 08:29:52;;;;;;;2.60;1.38;;;21.40;40.00;;;;;;5053999;27;43819;-61
2022/04/04 08:32:19;;;;;;;1.73;1.10;;;21.50;40.00;;;;;;5098316;27;43517;-62
2022/04/04 08:34:47;;;;;;;1.83;1.15;;;21.50;40.00;;;;;;5051332;27;43436;-61
2022/04/04 08:37:15;;;;;;;1.48;1.13;;;21.50;39.80;;;;;;5039497;27;43592;-61
2022/04/04 08:39:47;;;;;;;1.20;0.90;;;21.50;39.80;;;;;;5031683;28;44047;-62
2022/04/04 08:42:16;;;;;;;2.45;1.17;;;21.50;40.00;;;;;;5086090;27;44019;-62
2022/04/04 08:44:45;;;;;;;0.98;0.98;;;21.50;39.90;;;;;;5045852;27;43473;-62
2022/04/04 08:47:12;;;;;;;1.15;1.00;;;21.50;40.00;;;;;;5036046;27;43479;-62
2022/04/04 08:49:40;;;;;;;1.92;0.90;;;21.50;40.00;;;;;;5033665;28;44665;-60
2022/04/04 08:52:08;;;;;;;2.80;1.00;;;21.50;40.00;;;;;;5044100;27;43697;-62
2022/04/04 08:54:35;;;;;;;2.33;1.05;;;21.50;39.90;;;;;;5034808;27;43464;-63
2022/04/04 08:57:03;;;;;;;1.75;1.05;;;21.50;40.00;;;;;;5035645;27;44175;-62
2022/04/04 08:59:30;;;;;;;3.20;1.00;;;21.50;40.00;;;;;;5064943;27;44734;-62
2022/04/04 09:01:58;;;;;;;0.90;0.90;;;21.60;40.10;;;;;;5039068;27;43979;-62
2022/04/04 09:04:25;;;;;;;1.52;0.88;;;21.50;40.00;;;;;;5040480;27;43479;-62
2022/04/04 09:06:55;;;;;;;1.58;0.95;;;21.60;40.10;;;;;;5033368;27;43516;-63
2022/04/04 09:09:41;;;;;;;1.07;0.80;;;21.60;40.10;;;;;;5043475;27;44702;-62
2022/04/04 09:12:10;;;;;;;0.90;0.63;;;21.50;40.00;;;;;;5044539;27;43680;-62
2022/04/04 09:14:49;;;;;;;1.27;0.90;;;21.50;40.00;;;;;;5043755;27;43580;-62
2022/04/04 09:17:18;;;;;;;1.33;0.90;;;21.60;40.10;;;;;;5035000;27;43502;-62
2022/04/04 09:19:47;;;;;;;1.75;0.90;;;21.60;40.10;;;;;;5044405;27;44694;-63
2022/04/04 09:22:18;;;;;;;1.33;0.85;;;21.60;40.10;;;;;;5042319;27;43560;-62
2022/04/04 09:25:00;;;;;;;1.67;0.85;;;21.60;40.10;;;;;;5037002;27;43444;-62
2022/04/04 09:27:34;;;;;;;1.13;0.90;;;21.60;40.10;;;;;;5102521;27;43534;-62
2022/04/04 09:30:07;;;;;;;1.35;0.90;;;21.50;40.00;;;;;;5040430;27;43731;-63
2022/04/04 09:32:39;;;;;;;0.98;0.85;;;21.50;40.00;;;;;;5032345;28;43469;-62
2022/04/04 09:35:12;;;;;;;1.33;1.00;;;21.40;40.20;;;;;;5038259;28;43501;-62
2022/04/04 09:37:48;;;;;;;1.52;0.90;;;21.40;40.30;;;;;;5041316;27;43556;-62
2022/04/04 09:40:24;;;;;;;2.25;0.90;;;21.40;40.50;;;;;;5044229;27;45315;-62
2022/04/04 09:42:51;;;;;;;3.38;0.80;;;21.30;40.50;;;;;;5047301;27;44135;-62
2022/04/04 09:45:24;;;;;;;2.60;1.25;;;21.30;40.60;;;;;;5043013;27;43437;-62
2022/04/04 09:47:58;;;;;;;2.42;0.80;;;21.20;40.60;;;;;;5090701;27;43468;-62
2022/04/04 09:50:31;;;;;;;2.15;1.08;;;21.20;40.80;;;;;;5058640;27;45154;-62
2022/04/04 09:53:00;;;;;;;2.30;0.60;;;21.10;40.90;;;;;;5035739;27;44003;-62
2022/04/04 09:55:33;;;;;;;1.42;0.80;;;21.10;40.90;;;;;;5046010;27;43539;-62
2022/04/04 09:58:05;;;;;;;1.88;1.02;;;21.10;40.90;;;;;;5039166;27;43449;-62
2022/04/04 10:00:38;;;;;;;2.05;0.90;;;21.10;41.10;;;;;;5083709;27;44079;-62
2022/04/04 10:03:08;;;;;;;2.35;0.80;;;21.00;41.00;;;;;;5073036;27;43470;-62
2022/04/04 10:05:38;;;;;;;1.75;0.90;;;21.00;41.10;;;;;;5068365;27;44213;-62
2022/04/04 10:08:07;;;;;;;1.30;0.80;;;21.00;41.10;;;;;;5046228;27;43526;-62
2022/04/04 10:10:36;;;;;;;1.30;0.55;;;21.00;41.20;;;;;;5033822;27;44786;-62
2022/04/04 10:13:04;;;;;;;0.73;0.60;;;21.00;41.20;;;;;;5096563;27;43631;-62
2022/04/04 10:15:36;;;;;;;1.05;0.68;;;21.00;41.20;;;;;;5048007;27;43435;-62
2022/04/04 10:18:04;;;;;;;0.60;0.52;;;21.00;41.30;;;;;;5036387;27;43458;-62
2022/04/04 10:20:36;;;;;;;0.70;0.70;;;21.00;41.30;;;;;;5073852;27;44180;-61
2022/04/04 10:23:06;;;;;;;1.63;1.00;;;21.00;41.30;;;;;;5094716;27;44027;-62
2022/04/04 10:25:34;;;;;;;0.68;0.65;;;21.00;41.40;;;;;;5037875;27;43410;-63
2022/04/04 10:28:02;;;;;;;0.52;0.52;;;21.00;41.40;;;;;;5037643;27;43525;-61
2022/04/04 10:30:42;;;;;;;1.00;0.80;;;21.00;41.50;;;;;;5086972;27;44092;-62
2022/04/04 10:33:19;;;;;;;1.05;0.70;;;21.00;41.50;;;;;;5084984;27;43529;-62
2022/04/04 10:36:07;;;;;;;0.90;0.65;;;20.90;41.60;;;;;;5033875;28;43488;-62
2022/04/04 10:38:39;;;;;;;2.10;0.70;;;20.90;41.80;;;;;;5051030;27;43486;-62
2022/04/04 10:41:10;;;;;;;0.55;0.50;;;20.90;41.80;;;;;;5037970;27;43760;-61
2022/04/04 10:43:40;;;;;;;1.65;0.80;;;20.90;41.90;;;;;;5058781;27;43523;-61
2022/04/04 10:46:11;;;;;;;1.40;0.70;;;20.80;41.90;;;;;;5071162;27;43524;-62
2022/04/04 10:48:54;;;;;;;1.20;0.68;;;20.80;41.90;;;;;;5039245;27;43532;-61
2022/04/04 10:51:36;;;;;;;1.08;0.77;;;20.80;42.00;;;;;;5039763;27;44096;-62
2022/04/04 10:54:05;;;;;;;2.13;0.70;;;20.70;42.20;;;;;;5045232;27;44093;-61
2022/04/04 10:56:46;;;;;;;0.63;0.63;;;20.70;42.20;;;;;;5060104;27;43400;-61
2022/04/04 10:59:20;;;;;;;1.63;0.65;;;20.70;42.30;;;;;;5053960;27;43555;-61
2022/04/04 11:01:51;;;;;;;1.35;0.52;;;20.60;42.30;;;;;;5040883;27;43908;-62
2022/04/04 11:04:29;;;;;;;0.70;0.70;;;20.60;42.40;;;;;;5046350;27;43696;-62
2022/04/04 11:13:08;;;;;;;1.10;0.57;;;20.50;42.50;;;;;;5054332;27;45293;-62
2022/04/04 11:15:48;;;;;;;1.05;0.50;;;20.40;42.60;;;;;;5033809;28;43995;-62
2022/04/04 11:18:16;;;;;;;0.32;0.30;;;20.40;42.60;;;;;;5057017;27;43469;-62
2022/04/04 11:20:50;;;;;;;0.68;0.60;;;20.40;42.70;;;;;;5089341;27;43456;-62
2022/04/04 11:23:22;;;;;;;0.70;0.60;;;20.40;42.70;;;;;;5037211;27;44026;-62
2022/04/04 11:25:52;;;;;;;0.45;0.43;;;20.40;43.40;;;;;;5040889;27;43477;-62
2022/04/04 11:28:24;;;;;;;0.83;0.47;;;20.30;42.90;;;;;;5037570;27;43510;-61
2022/04/04 11:30:53;;;;;;;1.65;0.60;;;20.30;43.10;;;;;;5065613;27;43591;-62
2022/04/04 11:33:26;;;;;;;1.10;0.70;;;20.20;43.00;;;;;;5040731;27;44960;-61
2022/04/04 11:35:54;;;;;;;1.05;0.57;;;20.20;43.20;;;;;;5047292;27;43718;-63
2022/04/04 11:38:22;;;;;;;0.50;0.40;;;20.20;43.20;;;;;;5040714;27;43526;-63
2022/04/04 11:40:54;;;;;;;0.65;0.50;;;20.10;43.10;;;;;;5038522;27;43657;-63
2022/04/04 11:43:23;;;;;;;1.50;0.43;;;20.10;43.20;;;;;;5045684;27;43812;-63
2022/04/04 11:46:14;;;;;;;0.77;0.50;;;20.10;43.30;;;;;;5050359;27;44162;-63
2022/04/04 11:48:54;;;;;;;0.50;0.38;;;20.10;43.40;;;;;;5049272;27;43403;-62
2022/04/04 11:51:37;;;;;;;0.30;0.30;;;20.00;43.30;;;;;;5051541;27;43533;-63
2022/04/04 11:54:17;;;;;;;0.93;0.43;;;20.00;43.50;;;;;;5049782;27;44168;-63
2022/04/04 11:56:57;;;;;;;;;;;;;;;;;;;;;
2022/04/04 11:59:27;;;;;;;0.55;0.50;;;20.00;43.50;;;;;;5056106;27;43496;-63
2022/04/04 12:01:58;;;;;;;0.55;0.40;;;20.00;43.60;;;;;;5039413;27;43468;-63
2022/04/04 12:04:25;;;;;;;;;;;19.90;43.60;;;;;;5044962;27;44860;-62
2022/04/04 12:06:53;;;;;;;1.15;0.50;;;19.90;43.70;;;;;;5105730;27;43530;-62
2022/04/04 12:10:01;;;;;;;;;;;;;;;;;;;;;
2022/04/04 12:12:31;;;;;;;1.15;0.40;;;19.90;43.90;;;;;;5036421;27;43648;-62
2022/04/04 12:14:58;;;;;;;0.47;0.40;;;19.80;43.80;;;;;;5059475;27;43807;-62
2022/04/04 12:17:26;;;;;;;0.50;0.50;;;19.90;43.80;;;;;;5119863;27;43499;-62
2022/04/04 12:19:53;;;;;;;0.40;0.40;;;19.90;43.80;;;;;;5033462;27;43448;-62
2022/04/04 12:25:11;;;;;;;0.30;0.30;;;19.90;43.80;;;;;;5035764;27;44683;-62
2022/04/04 12:27:59;;;;;;;0.68;0.45;;;19.80;43.80;;;;;;5039956;27;43389;-62
2022/04/04 12:30:32;;;;;;;0.22;0.22;;;19.80;43.80;;;;;;5040258;28;43468;-62
2022/04/04 12:33:13;;;;;;;0.50;0.50;;;19.80;43.90;;;;;;5042206;27;43434;-62
2022/04/04 12:35:46;;;;;;;0.45;0.30;;;19.80;43.90;;;;;;5042489;27;43788;-62
2022/04/04 12:38:24;;;;;;;0.60;0.38;;;19.80;43.90;;;;;;5039264;27;43524;-62
2022/04/04 12:41:15;;;;;;;0.70;0.40;;;19.80;43.90;;;;;;5038270;27;43546;-62
2022/04/04 12:43:45;;;;;;;0.40;0.40;;;19.80;43.90;;;;;;5046862;27;44051;-63
2022/04/04 12:46:25;;;;;;;0.40;0.30;;;19.80;43.80;;;;;;5053799;27;43816;-62
2022/04/04 12:49:12;;;;;;;0.43;0.43;;;19.80;43.80;;;;;;5034715;27;43974;-62
2022/04/04 12:51:50;;;;;;;0.60;0.40;;;19.90;43.80;;;;;;5037673;28;44013;-62
2022/04/04 12:54:29;;;;;;;0.93;0.40;;;19.90;43.80;;;;;;5058586;27;43612;-62
2022/04/04 12:56:58;;;;;;;2.22;0.60;;;19.90;43.90;;;;;;5036581;27;43748;-62
2022/04/04 12:59:25;;;;;;;1.50;0.57;;;19.90;43.80;;;;;;5033816;27;43715;-62
2022/04/04 13:02:11;;;;;;;0.45;0.40;;;19.90;43.80;;;;;;5035775;27;43427;-62
2022/04/04 13:04:40;;;;;;;0.80;0.57;;;19.90;43.80;;;;;;5060928;27;43484;-62
2022/04/04 13:07:16;;;;;;;0.55;0.55;;;19.90;43.80;;;;;;5045544;27;44952;-62
2022/04/04 13:09:52;;;;;;;0.40;0.40;;;19.90;43.80;;;;;;5051852;27;43599;-63
2022/04/04 13:12:27;;;;;;;0.73;0.52;;;19.90;43.80;;;;;;5050870;27;43453;-62
2022/04/04 13:14:56;;;;;;;1.08;0.60;;;19.90;43.90;;;;;;5032578;27;43603;-62